Time;durP1;ratioP1;P1;durP2;ratioP2;P2;SDS_P1;SDS_P2;PMS_P1;PMS_P2;Temp;Humidity;BMP_temperature;BMP_pressure;BME280_temperature;BME280_humidity;BME280_pressure;Samples;Min_cycle;Max_cycle;Signal;HPM_P1;HPM_P2
2023/06/03 00:01:58;;;;;;;2.13;1.20;;;10.80;99.90;;;;;;4979475;28;20034;-80
2023/06/03 00:04:24;;;;;;;3.60;1.48;;;10.80;99.90;;;;;;5006257;28;20045;-81
2023/06/03 00:06:49;;;;;;;2.97;1.52;;;10.80;60.50;;;;;;4973175;28;20393;-81
2023/06/03 00:09:15;;;;;;;3.20;1.30;;;10.80;6.50;;;;;;4981211;28;20045;-81
2023/06/03 00:11:42;;;;;;;4.15;1.40;;;10.70;9.00;;;;;;5001053;28;20536;-81
2023/06/03 00:14:09;;;;;;;5.60;1.58;;;10.60;92.50;;;;;;4968377;28;20054;-80
2023/06/03 00:16:34;;;;;;;3.15;1.25;;;10.60;99.90;;;;;;4981190;28;20125;-80
2023/06/03 00:19:00;;;;;;;4.30;1.77;;;10.50;99.90;;;;;;4974138;28;20164;-81
2023/06/03 00:21:28;;;;;;;4.32;1.25;;;10.50;99.90;;;;;;4971463;28;20056;-80
2023/06/03 00:23:54;;;;;;;3.10;1.58;;;10.40;99.90;;;;;;4976246;28;20560;-81
2023/06/03 00:26:21;;;;;;;3.03;1.50;;;10.40;99.90;;;;;;4981707;28;20046;-81
2023/06/03 00:28:50;;;;;;;2.22;1.40;;;10.40;99.90;;;;;;4976955;28;20117;-80
2023/06/03 00:31:16;;;;;;;2.58;1.40;;;10.30;99.90;;;;;;4998965;28;20417;-81
2023/06/03 00:33:41;;;;;;;2.58;1.30;;;10.30;99.90;;;;;;4993380;28;20041;-81
2023/06/03 00:36:07;;;;;;;2.58;1.15;;;10.20;1.00;;;;;;4974114;28;20077;-81
2023/06/03 00:38:32;;;;;;;3.50;1.40;;;10.10;99.90;;;;;;5002688;28;20048;-81
2023/06/03 00:40:58;;;;;;;4.45;1.35;;;10.10;99.90;;;;;;4976526;28;20647;-81
2023/06/03 00:43:24;;;;;;;1.90;1.23;;;10.00;99.90;;;;;;4977402;28;20034;-81
2023/06/03 00:45:50;;;;;;;2.17;1.05;;;10.00;99.90;;;;;;4984943;28;20648;-81
2023/06/03 00:48:16;;;;;;;4.40;1.52;;;10.00;99.00;;;;;;4992999;28;20045;-81
2023/06/03 00:50:41;;;;;;;2.97;1.38;;;9.90;93.10;;;;;;4962538;28;20103;-81
2023/06/03 00:53:08;;;;;;;2.35;1.50;;;9.90;99.90;;;;;;5002028;28;20345;-80
2023/06/03 00:55:34;;;;;;;3.08;1.38;;;9.80;99.90;;;;;;4960789;28;20091;-81
2023/06/03 00:58:00;;;;;;;2.35;1.70;;;9.80;1.00;;;;;;4956164;28;20037;-81
2023/06/03 01:00:26;;;;;;;1.95;1.23;;;9.70;99.90;;;;;;4968258;28;20384;-81
2023/06/03 01:02:52;;;;;;;2.35;1.35;;;9.70;99.90;;;;;;4985314;28;20133;-81
2023/06/03 01:05:18;;;;;;;2.10;1.55;;;9.60;99.90;;;;;;4976688;28;20039;-81
2023/06/03 01:08:00;;;;;;;2.42;1.17;;;9.60;1.00;;;;;;4990662;28;20458;-81
2023/06/03 01:10:54;;;;;;;3.42;1.50;;;9.50;99.90;;;;;;4992614;28;20124;-81
2023/06/03 01:13:31;;;;;;;3.50;1.35;;;9.50;1.00;;;;;;4975419;28;20054;-81
2023/06/03 01:16:04;;;;;;;1.95;1.20;;;9.40;99.90;;;;;;4998625;28;20046;-81
2023/06/03 01:18:32;;;;;;;2.70;1.60;;;9.40;99.90;;;;;;5001066;28;20038;-81
2023/06/03 01:21:00;;;;;;;2.00;1.42;;;9.30;99.90;;;;;;4994182;28;20049;-81
2023/06/03 01:23:33;;;;;;;4.22;1.17;;;9.30;1.00;;;;;;4991971;28;21062;-81
2023/06/03 01:26:04;;;;;;;4.35;1.50;;;9.20;99.90;;;;;;4976197;28;20334;-80
2023/06/03 01:28:31;;;;;;;2.50;1.45;;;9.20;99.90;;;;;;4977939;28;20041;-80
2023/06/03 01:31:02;;;;;;;5.15;1.42;;;9.20;99.90;;;;;;4996382;28;20042;-81
2023/06/03 01:33:29;;;;;;;2.30;1.25;;;9.10;99.90;;;;;;4967468;28;20037;-81
2023/06/03 01:35:57;;;;;;;2.47;1.20;;;9.10;1.00;;;;;;4973452;28;20114;-81
2023/06/03 01:38:23;;;;;;;2.30;1.20;;;9.10;1.00;;;;;;4977685;28;20125;-81
2023/06/03 01:40:50;;;;;;;3.20;1.58;;;9.10;99.90;;;;;;4982969;28;20034;-80
2023/06/03 01:43:16;;;;;;;3.17;1.40;;;9.10;99.90;;;;;;4979773;28;20045;-81
2023/06/03 01:45:42;;;;;;;2.47;1.27;;;9.10;99.90;;;;;;4987678;28;20050;-81
2023/06/03 01:48:08;;;;;;;2.83;1.23;;;9.10;99.90;;;;;;4983208;28;20041;-81
2023/06/03 01:50:33;;;;;;;5.97;1.50;;;9.10;99.90;;;;;;4968818;28;20036;-80
2023/06/03 01:52:59;;;;;;;3.95;1.25;;;9.10;99.90;;;;;;4990468;28;20042;-80
2023/06/03 01:55:25;;;;;;;2.45;1.50;;;9.10;99.90;;;;;;4978592;28;20242;-80
2023/06/03 01:57:50;;;;;;;1.58;1.30;;;9.00;1.00;;;;;;4977103;28;20041;-80
2023/06/03 02:00:16;;;;;;;2.53;1.45;;;9.00;1.00;;;;;;4975945;28;20042;-81
2023/06/03 02:02:43;;;;;;;2.53;1.60;;;9.00;1.00;;;;;;4958031;28;20053;-81
2023/06/03 02:05:08;;;;;;;3.17;1.40;;;9.00;99.90;;;;;;4978214;28;20049;-81
2023/06/03 02:07:34;;;;;;;2.55;1.67;;;9.00;99.90;;;;;;4961503;28;20046;-81
2023/06/03 02:10:03;;;;;;;2.83;1.50;;;8.90;99.90;;;;;;4991078;28;20095;-81
2023/06/03 02:12:29;;;;;;;3.05;1.27;;;8.90;1.00;;;;;;4988706;28;20069;-81
2023/06/03 02:14:58;;;;;;;2.42;1.30;;;8.90;99.90;;;;;;5000917;28;20436;-80
2023/06/03 02:17:24;;;;;;;4.05;1.70;;;8.90;99.90;;;;;;4994472;28;20148;-80
2023/06/03 02:19:53;;;;;;;1.85;1.40;;;8.90;99.90;;;;;;5004649;28;20033;-80
2023/06/03 02:22:20;;;;;;;2.47;1.30;;;8.90;99.90;;;;;;5001918;28;20123;-81
2023/06/03 02:24:46;;;;;;;3.72;1.45;;;8.90;1.00;;;;;;4999894;28;20030;-80
2023/06/03 02:27:19;;;;;;;3.15;1.38;;;8.80;1.00;;;;;;4965006;28;20070;-80
2023/06/03 02:29:50;;;;;;;2.08;1.20;;;8.80;43.60;;;;;;4990460;28;20120;-80
2023/06/03 02:32:19;;;;;;;1.83;1.40;;;8.80;29.30;;;;;;4990313;28;20037;-81
2023/06/03 02:34:45;;;;;;;3.65;1.33;;;8.80;22.90;;;;;;4987607;28;20057;-80
2023/06/03 02:37:12;;;;;;;2.75;1.42;;;8.70;99.90;;;;;;4984059;28;20045;-81
2023/06/03 02:39:37;;;;;;;2.92;1.50;;;8.70;99.90;;;;;;4977192;28;20372;-81
2023/06/03 02:42:03;;;;;;;2.00;1.35;;;8.70;99.90;;;;;;4991262;28;20113;-80
2023/06/03 02:44:29;;;;;;;3.00;1.52;;;8.60;99.90;;;;;;4990212;28;20073;-80
2023/06/03 02:46:55;;;;;;;3.47;1.70;;;8.60;99.90;;;;;;4955397;28;20062;-81
2023/06/03 02:49:21;;;;;;;4.68;1.50;;;8.60;99.90;;;;;;4983337;28;20038;-80
2023/06/03 02:51:46;;;;;;;4.38;1.50;;;8.60;99.90;;;;;;4977444;28;20091;-80
2023/06/03 02:54:12;;;;;;;2.55;2.00;;;8.60;99.90;;;;;;4960952;28;20308;-81
2023/06/03 02:56:37;;;;;;;2.72;1.50;;;8.50;99.90;;;;;;4996601;28;20041;-80
2023/06/03 02:59:03;;;;;;;2.38;1.38;;;8.50;99.90;;;;;;4980833;28;20034;-81
2023/06/03 03:01:30;;;;;;;3.10;1.60;;;8.50;99.90;;;;;;4981467;28;20113;-81
2023/06/03 03:03:56;;;;;;;2.65;1.40;;;8.50;99.90;;;;;;4961426;28;20049;-81
2023/06/03 03:06:21;;;;;;;3.05;1.50;;;8.50;99.90;;;;;;4989940;28;20060;-80
2023/06/03 03:08:48;;;;;;;3.08;1.45;;;8.40;99.90;;;;;;4967924;28;20308;-81
2023/06/03 03:11:14;;;;;;;2.92;1.42;;;8.40;99.90;;;;;;4991896;28;20045;-81
2023/06/03 03:13:41;;;;;;;11.38;1.70;;;8.40;99.90;;;;;;4973974;28;20061;-81
2023/06/03 03:16:08;;;;;;;3.92;1.80;;;8.40;99.90;;;;;;5004360;28;20050;-80
2023/06/03 03:18:34;;;;;;;3.08;1.45;;;8.40;99.90;;;;;;4994667;28;20060;-80
2023/06/03 03:21:03;;;;;;;3.60;1.83;;;8.30;99.90;;;;;;4963804;28;20069;-80
2023/06/03 03:23:29;;;;;;;3.88;1.63;;;8.30;99.90;;;;;;4978449;28;20041;-81
2023/06/03 03:26:00;;;;;;;3.78;2.13;;;8.30;99.90;;;;;;4981956;28;20129;-81
2023/06/03 03:28:26;;;;;;;3.45;1.92;;;8.30;99.90;;;;;;4994043;28;20084;-80
2023/06/03 03:30:55;;;;;;;2.70;1.65;;;8.30;99.90;;;;;;4989261;28;20373;-80
2023/06/03 03:33:21;;;;;;;2.38;1.50;;;8.30;99.90;;;;;;4988389;28;20093;-81
2023/06/03 03:35:48;;;;;;;3.47;1.75;;;8.30;99.90;;;;;;4964842;28;20145;-81
2023/06/03 03:38:14;;;;;;;4.65;1.95;;;8.30;99.90;;;;;;4960770;28;20096;-81
2023/06/03 03:40:40;;;;;;;2.17;1.63;;;8.20;99.90;;;;;;4986779;28;20100;-81
2023/06/03 03:43:17;;;;;;;3.45;1.90;;;8.30;99.90;;;;;;4959315;28;20034;-80
2023/06/03 03:45:43;;;;;;;3.05;1.90;;;8.30;99.90;;;;;;4977148;28;20070;-80
2023/06/03 03:48:13;;;;;;;3.33;1.67;;;8.40;99.90;;;;;;4975823;28;20107;-81
2023/06/03 03:50:51;;;;;;;5.78;1.80;;;8.40;99.90;;;;;;4992744;28;20035;-80
2023/06/03 03:53:22;;;;;;;2.42;1.75;;;8.40;99.90;;;;;;4994959;28;20045;-81
2023/06/03 03:55:52;;;;;;;4.72;1.92;;;8.40;99.90;;;;;;4962205;28;20687;-81
2023/06/03 03:58:55;;;;;;;4.20;1.80;;;8.40;99.90;;;;;;4994580;28;20065;-81
2023/06/03 04:01:23;;;;;;;3.50;1.60;;;8.40;99.90;;;;;;4951885;28;20126;-81
2023/06/03 04:03:51;;;;;;;2.90;1.80;;;8.40;99.90;;;;;;4981416;28;20153;-80
2023/06/03 04:06:36;;;;;;;5.03;1.83;;;8.40;99.90;;;;;;4973789;28;20104;-81
2023/06/03 04:09:04;;;;;;;4.00;1.80;;;8.50;99.90;;;;;;4971513;28;20068;-80
2023/06/03 04:11:36;;;;;;;2.80;1.77;;;8.50;99.90;;;;;;4977351;28;20679;-80
2023/06/03 04:14:03;;;;;;;3.78;1.90;;;8.60;99.90;;;;;;4965424;28;20046;-80
2023/06/03 04:16:48;;;;;;;3.25;1.98;;;8.60;99.90;;;;;;4984922;28;20053;-80
2023/06/03 04:19:27;;;;;;;2.05;1.80;;;8.70;99.90;;;;;;4996050;28;20041;-80
2023/06/03 04:21:53;;;;;;;2.58;1.70;;;8.70;99.90;;;;;;4962526;28;20048;-81
2023/06/03 04:24:19;;;;;;;5.65;2.20;;;8.70;99.90;;;;;;4971439;28;20046;-81
2023/06/03 04:26:45;;;;;;;3.38;1.67;;;8.80;99.90;;;;;;4958461;28;20098;-79
2023/06/03 04:29:10;;;;;;;4.35;2.20;;;8.80;99.90;;;;;;4975814;28;20717;-80
2023/06/03 04:31:36;;;;;;;2.88;1.88;;;8.90;99.90;;;;;;4989943;28;20031;-80
2023/06/03 04:34:02;;;;;;;4.35;2.05;;;9.00;99.90;;;;;;4992483;28;20064;-81
2023/06/03 04:36:28;;;;;;;3.33;1.70;;;9.20;99.90;;;;;;4989497;28;20049;-80
2023/06/03 04:38:54;;;;;;;2.55;1.85;;;9.40;99.90;;;;;;4975419;28;20340;-81
2023/06/03 04:41:27;;;;;;;2.35;1.95;;;9.60;99.90;;;;;;5005681;28;20041;-80
2023/06/03 04:43:54;;;;;;;2.67;1.85;;;9.60;99.90;;;;;;4962421;28;20068;-80
2023/06/03 04:46:19;;;;;;;5.07;2.63;;;9.80;99.90;;;;;;4998215;28;20042;-80
2023/06/03 04:48:47;;;;;;;5.65;1.90;;;9.90;99.90;;;;;;4997290;28;20409;-80
2023/06/03 04:51:13;;;;;;;4.28;1.85;;;10.10;99.90;;;;;;4989304;28;20064;-80
2023/06/03 04:53:40;;;;;;;7.22;2.00;;;10.20;99.90;;;;;;4988740;28;20076;-81
2023/06/03 04:56:08;;;;;;;4.60;1.85;;;10.30;99.90;;;;;;4992473;28;20112;-80
2023/06/03 04:58:35;;;;;;;3.28;2.03;;;10.50;99.90;;;;;;4992773;28;20054;-81
2023/06/03 05:01:04;;;;;;;3.55;1.85;;;10.60;99.90;;;;;;4967385;28;20064;-81
2023/06/03 05:03:30;;;;;;;3.95;2.22;;;10.60;99.90;;;;;;4996770;28;20493;-80
2023/06/03 05:05:57;;;;;;;4.40;2.47;;;10.80;99.90;;;;;;4959228;28;20033;-80
2023/06/03 05:08:23;;;;;;;5.78;2.38;;;10.90;99.90;;;;;;4987431;28;20033;-80
2023/06/03 05:10:49;;;;;;;5.28;2.70;;;11.00;99.90;;;;;;4977436;28;20065;-80
2023/06/03 05:13:15;;;;;;;3.38;1.95;;;11.10;99.90;;;;;;4968768;28;20061;-80
2023/06/03 05:15:40;;;;;;;4.80;2.40;;;11.20;99.90;;;;;;4984714;28;20187;-80
2023/06/03 05:18:09;;;;;;;5.60;2.35;;;11.30;99.90;;;;;;4975627;28;20124;-81
2023/06/03 05:20:34;;;;;;;3.90;2.42;;;11.50;1.00;;;;;;4990698;28;20053;-80
2023/06/03 05:23:00;;;;;;;4.82;2.25;;;11.60;98.90;;;;;;4984312;28;20171;-80
2023/06/03 05:25:26;;;;;;;3.90;2.05;;;11.70;99.90;;;;;;4964646;28;20056;-81
2023/06/03 05:27:51;;;;;;;3.10;2.15;;;11.80;99.90;;;;;;4994595;28;20042;-81
2023/06/03 05:30:17;;;;;;;3.20;2.13;;;11.90;99.90;;;;;;4986523;28;20172;-80
2023/06/03 05:32:43;;;;;;;3.17;2.10;;;12.10;1.00;;;;;;4991323;28;20038;-81
2023/06/03 05:35:09;;;;;;;5.60;1.98;;;12.20;99.90;;;;;;4960972;28;20083;-80
2023/06/03 05:37:38;;;;;;;3.70;2.05;;;12.20;99.90;;;;;;4970403;28;20409;-80
2023/06/03 05:40:04;;;;;;;5.22;2.10;;;12.30;1.00;;;;;;4987570;28;20306;-80
2023/06/03 05:42:30;;;;;;;4.15;1.90;;;12.30;99.90;;;;;;4974795;28;20528;-80
2023/06/03 05:44:56;;;;;;;6.65;2.25;;;12.30;1.00;;;;;;4960902;28;20042;-80
2023/06/03 05:47:21;;;;;;;4.50;2.17;;;12.50;1.00;;;;;;4961647;28;20038;-80
2023/06/03 05:49:47;;;;;;;4.15;2.13;;;12.60;99.90;;;;;;4985178;28;20111;-80
2023/06/03 05:52:13;;;;;;;3.95;1.88;;;12.80;99.90;;;;;;4992718;28;20393;-81
2023/06/03 05:54:38;;;;;;;2.30;1.85;;;12.90;99.90;;;;;;4988819;28;20501;-81
2023/06/03 05:57:07;;;;;;;3.72;1.80;;;12.80;99.90;;;;;;4989566;28;20132;-80
2023/06/03 05:59:33;;;;;;;3.15;2.08;;;12.90;99.90;;;;;;4982853;28;20132;-80
2023/06/03 06:01:58;;;;;;;5.60;1.83;;;12.90;1.00;;;;;;4983546;28;20659;-80
2023/06/03 06:04:24;;;;;;;4.80;1.77;;;12.80;51.50;;;;;;4963868;28;20046;-80
2023/06/03 06:06:49;;;;;;;3.05;1.98;;;12.90;1.00;;;;;;4971391;28;20432;-80
2023/06/03 06:09:15;;;;;;;5.07;2.00;;;13.10;12.70;;;;;;4986358;28;20029;-80
2023/06/03 06:11:42;;;;;;;5.38;1.88;;;13.30;1.00;;;;;;4982277;28;20042;-80
2023/06/03 06:14:11;;;;;;;2.67;1.70;;;13.40;99.90;;;;;;4999689;28;20559;-81
2023/06/03 06:16:37;;;;;;;3.90;1.80;;;13.50;99.90;;;;;;4982714;28;20049;-80
2023/06/03 06:19:03;;;;;;;3.20;1.77;;;13.50;99.90;;;;;;4968059;28;20057;-80
2023/06/03 06:21:29;;;;;;;3.10;1.80;;;13.50;66.50;;;;;;4992886;28;20070;-80
2023/06/03 06:23:55;;;;;;;4.75;1.80;;;13.70;99.90;;;;;;4994093;28;20074;-80
2023/06/03 06:26:21;;;;;;;3.05;1.70;;;13.80;1.00;;;;;;4995554;28;20177;-81
2023/06/03 06:28:47;;;;;;;3.65;1.70;;;14.00;1.00;;;;;;4976430;28;20356;-81
2023/06/03 06:31:15;;;;;;;4.65;1.70;;;14.20;99.90;;;;;;4993361;28;20504;-80
2023/06/03 06:33:47;;;;;;;3.03;1.67;;;14.30;99.90;;;;;;5004087;28;20125;-80
2023/06/03 06:36:49;;;;;;;3.00;1.58;;;14.40;1.00;;;;;;4993069;28;20045;-81
2023/06/03 06:39:35;;;;;;;3.45;1.40;;;14.60;1.00;;;;;;4964921;28;20045;-81
2023/06/03 06:42:29;;;;;;;2.42;1.50;;;14.60;99.90;;;;;;4976467;28;20058;-81
2023/06/03 06:44:55;;;;;;;3.45;1.40;;;14.80;99.90;;;;;;4983148;28;20060;-80
2023/06/03 06:47:23;;;;;;;4.05;1.58;;;15.00;99.90;;;;;;4959755;28;20037;-80
2023/06/03 06:49:50;;;;;;;3.00;1.33;;;15.10;99.90;;;;;;4981218;28;20035;-80
2023/06/03 06:52:16;;;;;;;3.25;1.50;;;15.20;63.90;;;;;;4994213;28;20149;-81
2023/06/03 06:54:42;;;;;;;3.35;1.40;;;15.30;1.00;;;;;;4960114;28;20334;-81
2023/06/03 06:57:08;;;;;;;4.35;1.50;;;15.40;1.00;;;;;;4995590;28;20266;-80
2023/06/03 06:59:34;;;;;;;3.38;1.30;;;15.60;1.00;;;;;;4991400;28;20057;-80
2023/06/03 07:02:00;;;;;;;2.60;1.30;;;15.70;99.90;;;;;;4978731;28;20045;-80
2023/06/03 07:04:26;;;;;;;2.33;1.20;;;15.90;1.00;;;;;;5000746;28;20042;-81
2023/06/03 07:06:52;;;;;;;4.60;1.40;;;16.00;99.90;;;;;;4973638;28;20069;-81
2023/06/03 07:09:18;;;;;;;4.70;1.30;;;16.20;99.90;;;;;;4990818;28;20086;-80
2023/06/03 07:11:45;;;;;;;4.22;1.20;;;16.20;99.90;;;;;;4959199;28;20030;-80
2023/06/03 07:14:11;;;;;;;3.33;1.30;;;16.40;99.90;;;;;;4999022;28;20068;-80
2023/06/03 07:16:38;;;;;;;1.88;1.35;;;16.40;99.90;;;;;;4984507;28;20465;-80
2023/06/03 07:19:04;;;;;;;2.20;1.40;;;16.50;94.00;;;;;;4989439;28;20195;-80
2023/06/03 07:21:33;;;;;;;2.53;1.30;;;16.80;99.90;;;;;;4961897;28;20037;-80
2023/06/03 07:24:03;;;;;;;4.32;1.20;;;16.90;99.90;;;;;;4960284;28;20576;-81
2023/06/03 07:26:31;;;;;;;1.42;0.90;;;17.20;99.90;;;;;;4972175;28;20042;-80
2023/06/03 07:28:57;;;;;;;4.00;1.60;;;17.40;93.70;;;;;;4977543;28;20072;-80
2023/06/03 07:31:24;;;;;;;3.50;1.20;;;17.50;1.00;;;;;;5002816;28;20042;-80
2023/06/03 07:33:55;;;;;;;2.72;1.00;;;17.90;48.10;;;;;;4973583;28;20040;-81
2023/06/03 07:36:24;;;;;;;4.82;1.00;;;18.00;10.20;;;;;;4988730;28;20041;-80
2023/06/03 07:39:06;;;;;;;3.83;1.20;;;18.10;1.00;;;;;;4995020;28;20038;-80
2023/06/03 07:41:43;;;;;;;4.63;1.23;;;17.90;1.00;;;;;;4971202;28;20044;-80
2023/06/03 07:44:13;;;;;;;2.58;1.02;;;17.90;1.00;;;;;;4985146;28;20056;-80
2023/06/03 07:46:40;;;;;;;3.97;1.05;;;18.00;1.00;;;;;;4997523;28;20034;-81
2023/06/03 07:49:24;;;;;;;5.25;1.13;;;18.10;1.00;;;;;;4988993;28;20103;-80
2023/06/03 07:51:51;;;;;;;4.00;0.98;;;18.70;1.00;;;;;;4959067;28;20107;-80
2023/06/03 07:54:18;;;;;;;2.55;1.00;;;19.00;1.00;;;;;;4998212;28;20038;-81
2023/06/03 07:56:45;;;;;;;1.27;1.08;;;18.90;99.90;;;;;;4982118;28;20527;-80
2023/06/03 07:59:13;;;;;;;6.13;1.15;;;19.20;99.90;;;;;;4978148;28;20060;-81
2023/06/03 08:01:39;;;;;;;2.05;1.10;;;19.10;99.90;;;;;;4976020;28;20325;-81
2023/06/03 08:04:20;;;;;;;3.38;1.02;;;19.00;99.90;;;;;;4975748;28;20046;-80
2023/06/03 08:06:47;;;;;;;1.63;0.77;;;19.10;99.90;;;;;;4994890;28;20080;-80
2023/06/03 08:09:33;;;;;;;1.17;0.68;;;18.70;99.90;;;;;;4991885;28;20033;-80
2023/06/03 08:12:02;;;;;;;1.35;0.90;;;18.30;99.90;;;;;;5003900;28;20118;-80
2023/06/03 08:14:30;;;;;;;3.38;1.08;;;18.20;99.90;;;;;;5006745;28;20092;-81
2023/06/03 08:17:00;;;;;;;1.98;1.08;;;18.10;99.90;;;;;;4992191;28;20046;-81
2023/06/03 08:19:26;;;;;;;2.63;1.00;;;18.00;99.90;;;;;;5003418;28;20047;-80
2023/06/03 08:21:52;;;;;;;2.13;0.80;;;17.80;99.90;;;;;;5002875;28;20041;-81
2023/06/03 08:24:20;;;;;;;2.78;0.90;;;17.80;99.90;;;;;;4977782;28;20139;-80
2023/06/03 08:26:46;;;;;;;3.20;1.13;;;17.60;99.90;;;;;;4959857;28;20133;-80
2023/06/03 08:29:12;;;;;;;1.80;1.00;;;17.60;99.90;;;;;;4997421;28;20127;-80
2023/06/03 08:31:38;;;;;;;2.38;0.93;;;17.60;99.90;;;;;;4989503;28;20065;-80
2023/06/03 08:34:04;;;;;;;3.22;1.30;;;17.80;99.90;;;;;;4995886;28;20138;-80
2023/06/03 08:36:30;;;;;;;3.42;1.05;;;17.90;99.90;;;;;;4976908;28;20498;-80
2023/06/03 08:38:59;;;;;;;9.82;1.25;;;18.00;99.90;;;;;;4975505;28;20148;-81
2023/06/03 08:41:26;;;;;;;1.92;0.90;;;18.30;99.90;;;;;;4968291;28;20042;-81
2023/06/03 08:44:01;;;;;;;2.70;0.95;;;18.30;99.90;;;;;;4978610;28;20141;-80
2023/06/03 08:46:38;;;;;;;3.10;1.05;;;18.50;99.90;;;;;;4975842;28;20095;-79
2023/06/03 08:49:07;;;;;;;3.72;1.13;;;18.50;99.90;;;;;;4976814;28;20389;-79
2023/06/03 08:51:38;;;;;;;1.38;0.90;;;18.60;99.90;;;;;;4996313;28;20077;-80
2023/06/03 08:54:17;;;;;;;2.90;0.80;;;18.50;99.90;;;;;;4955773;28;20069;-80
2023/06/03 08:56:48;;;;;;;1.50;0.90;;;18.60;99.90;;;;;;5002602;28;20074;-80
2023/06/03 08:59:21;;;;;;;2.00;0.85;;;18.70;99.90;;;;;;4981772;28;20045;-80
2023/06/03 09:01:52;;;;;;;1.95;1.10;;;18.70;99.90;;;;;;5000016;28;20033;-80
2023/06/03 09:04:18;;;;;;;3.40;1.10;;;18.50;99.90;;;;;;4992049;28;20046;-80
2023/06/03 09:06:47;;;;;;;3.58;0.95;;;18.60;99.90;;;;;;4980263;28;20902;-80
2023/06/03 09:09:14;;;;;;;1.30;0.95;;;19.20;99.90;;;;;;4974166;28;20045;-80
2023/06/03 09:11:41;;;;;;;1.60;0.95;;;19.20;99.90;;;;;;4990523;28;20038;-79
2023/06/03 09:14:09;;;;;;;3.97;0.90;;;19.20;99.90;;;;;;4977751;28;20053;-81
2023/06/03 09:16:36;;;;;;;3.47;0.93;;;19.30;99.90;;;;;;4962607;28;20053;-81
2023/06/03 09:19:03;;;;;;;1.80;1.00;;;19.50;99.90;;;;;;4979303;28;20569;-80
2023/06/03 09:21:28;;;;;;;2.47;1.42;;;19.60;99.90;;;;;;4982425;28;20595;-81
2023/06/03 09:23:54;;;;;;;2.22;1.00;;;19.70;99.90;;;;;;4963063;28;20038;-80
2023/06/03 09:26:21;;;;;;;5.30;1.00;;;19.80;99.90;;;;;;4982102;28;20080;-81
2023/06/03 09:28:47;;;;;;;3.35;1.20;;;20.00;99.90;;;;;;4963456;28;20041;-80
2023/06/03 09:31:13;;;;;;;1.95;1.02;;;19.70;99.90;;;;;;4979002;28;20391;-80
2023/06/03 09:33:40;;;;;;;1.75;0.93;;;20.10;99.90;;;;;;4955041;28;20046;-81
2023/06/03 09:36:15;;;;;;;3.15;1.20;;;20.20;99.90;;;;;;4971291;28;20042;-80
2023/06/03 09:38:47;;;;;;;;;;;20.30;99.90;;;;;;4984258;28;20042;-79
2023/06/03 09:41:15;;;;;;;1.73;0.80;;;20.20;99.90;;;;;;4982175;28;19918;-81
2023/06/03 09:43:50;;;;;;;1.65;1.20;;;20.00;99.90;;;;;;4957572;28;20041;-80
2023/06/03 09:46:16;;;;;;;1.58;1.00;;;20.30;99.90;;;;;;4999140;28;20325;-81
2023/06/03 09:48:42;;;;;;;4.05;1.08;;;20.00;99.90;;;;;;4979892;28;20126;-81
2023/06/03 09:51:07;;;;;;;2.45;1.48;;;19.90;99.90;;;;;;4974473;28;20067;-81
2023/06/03 09:53:33;;;;;;;5.43;1.08;;;20.20;99.90;;;;;;4982490;28;20054;-81
2023/06/03 09:56:19;;;;;;;1.92;0.85;;;20.40;99.90;;;;;;4967062;28;20057;-81
2023/06/03 09:58:45;;;;;;;3.35;1.05;;;20.30;99.90;;;;;;4955287;28;20502;-81
2023/06/03 10:01:14;;;;;;;3.13;1.10;;;20.40;99.90;;;;;;4995576;28;20459;-81
2023/06/03 10:04:06;;;;;;;4.50;1.55;;;20.60;99.90;;;;;;5006509;28;20048;-80
2023/06/03 10:06:32;;;;;;;1.88;0.85;;;20.90;99.90;;;;;;4960228;28;20145;-81
2023/06/03 10:09:00;;;;;;;1.67;1.23;;;21.00;99.90;;;;;;4983020;28;20042;-81
2023/06/03 10:11:25;;;;;;;2.15;1.30;;;20.80;99.90;;;;;;4971513;28;20038;-81
2023/06/03 10:14:04;;;;;;;1.98;1.10;;;21.00;99.90;;;;;;4964896;28;20053;-80
2023/06/03 10:16:30;;;;;;;5.05;1.33;;;21.00;99.90;;;;;;4960579;28;20038;-81
2023/06/03 10:18:56;;;;;;;2.40;1.10;;;21.20;99.90;;;;;;4977451;28;20045;-81
2023/06/03 10:21:23;;;;;;;3.70;1.10;;;20.80;99.90;;;;;;4975875;28;20581;-80
2023/06/03 10:23:51;;;;;;;2.80;1.25;;;20.60;99.90;;;;;;4961149;28;20146;-82
2023/06/03 10:26:17;;;;;;;2.58;1.20;;;21.00;99.90;;;;;;4971419;28;20043;-83
2023/06/03 10:28:46;;;;;;;1.67;1.20;;;21.20;99.90;;;;;;4958513;28;20056;-82
2023/06/03 10:31:12;;;;;;;2.60;1.00;;;21.10;99.90;;;;;;4953534;28;20047;-82
2023/06/03 10:33:40;;;;;;;2.22;1.10;;;21.40;99.90;;;;;;4960857;28;20049;-82
2023/06/03 10:36:06;;;;;;;2.20;1.05;;;21.80;99.90;;;;;;4975768;28;20447;-82
2023/06/03 10:38:33;;;;;;;1.70;1.00;;;21.90;99.90;;;;;;4956990;28;20042;-82
2023/06/03 10:41:01;;;;;;;2.22;1.10;;;21.90;99.90;;;;;;4964083;28;20035;-82
2023/06/03 10:43:29;;;;;;;2.58;1.17;;;21.70;99.90;;;;;;4975010;28;20049;-82
2023/06/03 10:45:57;;;;;;;2.90;1.05;;;21.40;99.90;;;;;;4939067;28;20126;-82
2023/06/03 10:48:24;;;;;;;5.30;1.20;;;21.90;99.90;;;;;;4970257;28;20051;-82
2023/06/03 10:51:20;;;;;;;2.22;0.95;;;21.80;99.90;;;;;;4947684;28;20434;-82
2023/06/03 10:54:22;;;;;;;2.28;0.82;;;21.80;99.90;;;;;;4954761;28;20129;-82
2023/06/03 10:57:03;;;;;;;3.30;1.08;;;22.20;99.90;;;;;;4952683;28;20365;-83
2023/06/03 10:59:40;;;;;;;1.95;1.20;;;21.30;94.10;;;;;;4941860;28;20042;-82
2023/06/03 11:02:06;;;;;;;3.38;1.00;;;21.60;92.20;;;;;;4960654;28;20077;-82
2023/06/03 11:04:36;;;;;;;2.83;0.90;;;22.00;98.50;;;;;;4938567;28;20050;-82
2023/06/03 11:07:03;;;;;;;2.90;0.90;;;22.20;99.90;;;;;;4940958;28;20286;-82
2023/06/03 11:09:40;;;;;;;1.02;0.85;;;22.20;97.80;;;;;;4970763;28;20070;-82
2023/06/03 11:12:09;;;;;;;2.22;0.90;;;22.60;99.90;;;;;;4969058;28;20137;-82
2023/06/03 11:14:40;;;;;;;1.45;0.90;;;22.30;92.60;;;;;;5007560;28;20041;-82
2023/06/03 11:17:06;;;;;;;1.48;0.80;;;22.30;98.30;;;;;;5002988;28;20045;-83
2023/06/03 11:19:37;;;;;;;2.83;1.00;;;22.10;75.40;;;;;;5002244;28;20045;-82
2023/06/03 11:22:10;;;;;;;3.22;1.10;;;22.10;65.20;;;;;;5002094;28;20117;-82
2023/06/03 11:24:39;;;;;;;1.48;1.00;;;21.90;55.40;;;;;;4992379;28;20101;-82
2023/06/03 11:27:11;;;;;;;1.50;0.80;;;22.40;67.00;;;;;;4984562;28;20153;-82
2023/06/03 11:29:51;;;;;;;5.20;0.90;;;22.90;94.50;;;;;;4997822;28;20129;-82
2023/06/03 11:32:24;;;;;;;3.33;1.00;;;23.00;88.90;;;;;;4998411;28;20050;-82
2023/06/03 11:34:51;;;;;;;4.40;0.90;;;22.90;72.50;;;;;;4990591;28;20127;-82
2023/06/03 11:37:19;;;;;;;2.45;1.00;;;22.90;68.20;;;;;;4970970;28;20057;-82
2023/06/03 11:40:06;;;;;;;3.13;0.90;;;22.90;47.90;;;;;;4991435;28;20050;-82
2023/06/03 11:42:49;;;;;;;2.35;1.00;;;23.20;48.60;;;;;;4961315;28;20132;-82
2023/06/03 11:45:21;;;;;;;6.35;1.25;;;21.80;1.00;;;;;;5004157;28;20454;-82
2023/06/03 11:47:50;;;;;;;2.05;1.00;;;22.60;24.00;;;;;;4997718;28;20134;-82
2023/06/03 11:50:16;;;;;;;1.63;1.05;;;23.00;25.90;;;;;;4996412;28;20044;-82
2023/06/03 11:52:42;;;;;;;3.22;0.90;;;23.20;48.10;;;;;;5001842;28;20037;-82
2023/06/03 11:55:08;;;;;;;1.30;0.82;;;23.50;52.00;;;;;;4973663;28;20045;-82
2023/06/03 11:57:33;;;;;;;1.20;0.98;;;23.90;71.80;;;;;;4976833;28;20681;-82
2023/06/03 12:00:09;;;;;;;2.17;1.00;;;23.80;43.70;;;;;;4977782;28;20461;-83
2023/06/03 12:02:45;;;;;;;1.40;1.13;;;23.40;26.40;;;;;;4966270;28;20046;-82
2023/06/03 12:05:12;;;;;;;4.28;1.30;;;23.30;27.50;;;;;;5008065;28;20436;-82
2023/06/03 12:07:38;;;;;;;3.00;1.15;;;23.10;11.60;;;;;;4961361;28;20034;-82
2023/06/03 12:10:05;;;;;;;1.90;1.02;;;23.80;67.30;;;;;;4984922;28;20126;-82
2023/06/03 12:12:33;;;;;;;2.70;1.20;;;23.90;28.50;;;;;;4962280;28;20402;-82
2023/06/03 12:15:05;;;;;;;2.25;1.15;;;24.20;42.40;;;;;;4984673;28;20057;-82
2023/06/03 12:17:31;;;;;;;3.17;0.90;;;23.90;9.50;;;;;;4992608;28;20046;-83
2023/06/03 12:20:03;;;;;;;1.92;1.10;;;24.30;33.90;;;;;;4985380;28;20037;-82
2023/06/03 12:22:28;;;;;;;3.95;1.20;;;23.80;14.40;;;;;;4976868;28;20107;-82
2023/06/03 12:24:54;;;;;;;1.90;1.13;;;24.40;33.50;;;;;;4960128;28;20591;-82
2023/06/03 12:27:25;;;;;;;2.13;1.00;;;24.20;18.90;;;;;;4978700;28;20042;-83
2023/06/03 12:29:56;;;;;;;1.77;1.00;;;24.30;18.50;;;;;;4976892;28;20042;-82
2023/06/03 12:32:23;;;;;;;2.65;1.00;;;24.70;33.50;;;;;;4961896;28;20512;-82
2023/06/03 12:34:50;;;;;;;1.58;1.02;;;24.50;29.80;;;;;;4986526;28;20042;-82
2023/06/03 12:37:29;;;;;;;2.63;1.00;;;23.60;1.00;;;;;;4993491;28;20873;-82
2023/06/03 12:40:05;;;;;;;2.33;0.90;;;23.30;1.00;;;;;;5137664;27;20936;-82
2023/06/03 12:42:42;;;;;;;2.50;1.17;;;24.50;1.10;;;;;;5131729;27;20519;-82
2023/06/03 12:45:09;;;;;;;1.65;0.77;;;24.40;1.00;;;;;;5095918;27;20214;-82
2023/06/03 12:48:01;;;;;;;4.38;1.27;;;24.70;3.50;;;;;;5121843;27;20413;-82
2023/06/03 12:50:31;;;;;;;2.97;1.17;;;24.60;1.00;;;;;;5107301;27;20042;-83
2023/06/03 12:53:13;;;;;;;3.67;1.15;;;22.70;1.00;;;;;;5106203;27;20073;-83
2023/06/03 12:55:39;;;;;;;3.38;1.00;;;23.60;1.00;;;;;;5141211;27;20073;-82
2023/06/03 12:58:04;;;;;;;1.00;0.88;;;24.10;1.00;;;;;;5122249;27;20076;-83
2023/06/03 13:00:33;;;;;;;2.20;0.75;;;24.40;1.00;;;;;;5144646;27;20055;-82
2023/06/03 13:03:00;;;;;;;1.27;0.77;;;23.80;1.00;;;;;;5135280;27;20096;-83